createdAt,value
2023-01-25T00:00:20.417Z,23.3
2023-01-25T00:03:49.760Z,22.4
2023-01-25T00:06:38.236Z,20.4
2023-01-25T00:09:25.500Z,21.5
2023-01-25T00:12:12.983Z,20.2
2023-01-25T00:15:00.406Z,21.4
2023-01-25T00:17:47.939Z,19.4
2023-01-25T00:20:36.021Z,16.8
2023-01-25T00:23:23.606Z,18.4
2023-01-25T00:26:11.652Z,18.9
2023-01-25T00:28:59.062Z,21.3
2023-01-25T00:31:47.681Z,20.1
2023-01-25T00:34:47.478Z,20.7
2023-01-25T00:37:36.289Z,18.5
2023-01-25T00:40:25.550Z,26
2023-01-25T00:43:13.025Z,31.2
2023-01-25T00:46:00.554Z,25
2023-01-25T00:48:48.375Z,24.5
2023-01-25T00:51:38.275Z,24
2023-01-25T00:54:25.804Z,23.6
2023-01-25T00:57:13.181Z,22
2023-01-25T01:00:00.643Z,23.8
2023-01-25T01:02:49.463Z,24.6
2023-01-25T01:05:37.023Z,22.3
2023-01-25T01:08:24.739Z,23.1
2023-01-25T01:11:12.525Z,23.7
2023-01-25T01:13:59.816Z,25.9
2023-01-25T01:16:47.587Z,24.5
2023-01-25T01:19:34.946Z,23.2
2023-01-25T01:22:23.174Z,24.7
2023-01-25T01:25:11.252Z,22.7
2023-01-25T01:27:58.654Z,25.1
2023-01-25T01:30:46.222Z,25
2023-01-25T01:33:35.294Z,23.9
2023-01-25T01:36:23.975Z,26.6
2023-01-25T01:39:14.575Z,26.1
2023-01-25T01:42:02.087Z,25.9
2023-01-25T01:44:49.773Z,26.6
2023-01-25T01:47:40.475Z,25.4
2023-01-25T01:50:30.513Z,25
2023-01-25T01:53:17.737Z,26.1
2023-01-25T01:56:05.929Z,24.9
2023-01-25T01:58:58.428Z,24.9
2023-01-25T02:01:47.771Z,24.6
2023-01-25T02:04:35.093Z,24.3
2023-01-25T02:07:23.019Z,24.7
2023-01-25T02:10:16.842Z,26.6
2023-01-25T02:13:05.759Z,27.2
2023-01-25T02:15:53.412Z,25.9
2023-01-25T02:18:41.135Z,29.9
2023-01-25T02:21:28.662Z,28.3
2023-01-25T02:24:22.540Z,29.8
2023-01-25T02:27:16.044Z,27.2
2023-01-25T02:30:04.870Z,26.2
2023-01-25T02:32:53.924Z,28.1
2023-01-25T02:35:41.195Z,30.3
2023-01-25T02:38:31.740Z,30.6
2023-01-25T02:41:21.519Z,28.7
2023-01-25T02:44:17.898Z,27.1
2023-01-25T02:47:09.364Z,28.4
2023-01-25T02:49:56.694Z,28.2
2023-01-25T02:52:44.007Z,31.4
2023-01-25T02:55:31.470Z,27.6
2023-01-25T02:58:18.874Z,28.9
2023-01-25T03:01:06.463Z,28.1
2023-01-25T03:03:55.047Z,28.4
2023-01-25T03:06:42.331Z,29
2023-01-25T03:09:29.641Z,26.8
2023-01-25T03:12:16.857Z,27.3
2023-01-25T03:15:04.268Z,28.6
2023-01-25T03:17:53.330Z,30.5
2023-01-25T03:20:41.678Z,27
2023-01-25T03:23:29.240Z,25.8
2023-01-25T03:26:17.356Z,26.8
2023-01-25T03:29:07.216Z,27.5
2023-01-25T03:31:54.634Z,27.7
2023-01-25T03:34:41.967Z,26.4
2023-01-25T03:37:29.362Z,27.1
2023-01-25T03:40:16.596Z,25.8
2023-01-25T03:43:04.111Z,24.6
2023-01-25T03:45:51.477Z,26.3
2023-01-25T03:48:40.056Z,24.6
2023-01-25T03:51:27.373Z,25.7
2023-01-25T03:54:14.912Z,20.2
2023-01-25T03:57:02.228Z,16.6
2023-01-25T03:59:49.536Z,14.5
2023-01-25T04:02:36.777Z,14
2023-01-25T04:05:24.932Z,11.6
2023-01-25T04:08:12.404Z,11.2
2023-01-25T04:11:00.292Z,11.4
2023-01-25T04:13:49.891Z,12.1
2023-01-25T04:16:37.347Z,11.3
2023-01-25T04:19:24.684Z,11.5
2023-01-25T04:22:12.012Z,11.1
2023-01-25T04:24:59.451Z,10.1
2023-01-25T04:27:47.014Z,9.9
2023-01-25T04:30:36.039Z,11
2023-01-25T04:33:23.784Z,11.6
2023-01-25T04:36:12.063Z,10.3
2023-01-25T04:38:59.436Z,9.3
2023-01-25T04:41:46.748Z,9.5
2023-01-25T04:44:34.023Z,9.7
2023-01-25T04:47:21.346Z,10.7
2023-01-25T04:50:09.582Z,8.8
2023-01-25T04:52:57.164Z,10.3
2023-01-25T04:55:44.683Z,10.5
2023-01-25T04:58:32.994Z,10
2023-01-25T05:01:20.455Z,10
2023-01-25T05:04:07.933Z,10.8
2023-01-25T05:06:55.822Z,8.2
2023-01-25T05:09:43.275Z,8.8
2023-01-25T05:12:30.792Z,8.7
2023-01-25T05:15:18.160Z,9.6
2023-01-25T05:18:05.579Z,9.8
2023-01-25T05:20:53.008Z,9.5
2023-01-25T05:23:40.747Z,8.8
2023-01-25T05:26:27.985Z,9
2023-01-25T05:29:47.932Z,10
2023-01-25T05:32:35.237Z,10.1
2023-01-25T05:35:22.783Z,9.6
2023-01-25T05:38:11.362Z,8.8
2023-01-25T05:40:58.750Z,9.1
2023-01-25T05:43:45.966Z,8.6
2023-01-25T05:46:33.923Z,10.1
2023-01-25T05:49:21.256Z,9.2
2023-01-25T05:52:08.899Z,10
2023-01-25T05:54:59.252Z,11.5
2023-01-25T05:57:46.628Z,10.3
2023-01-25T06:00:34.982Z,11.2
2023-01-25T06:03:22.520Z,10.6
2023-01-25T06:06:11.105Z,9.7
2023-01-25T06:08:58.537Z,9.9
2023-01-25T06:11:47.164Z,10.2
2023-01-25T06:14:34.615Z,10.9
2023-01-25T06:17:21.926Z,11.3
2023-01-25T06:20:10.323Z,9
2023-01-25T06:22:58.167Z,8.5
2023-01-25T06:25:45.636Z,9.3
2023-01-25T06:28:32.994Z,9.6
2023-01-25T06:31:22.877Z,9.7
2023-01-25T06:34:11.384Z,7.8
2023-01-25T06:36:58.758Z,8.4
2023-01-25T06:39:46.073Z,9
2023-01-25T06:42:33.502Z,8
2023-01-25T06:45:20.746Z,8.9
2023-01-25T06:48:08.265Z,8.8
2023-01-25T06:50:55.583Z,7.4
2023-01-25T06:53:44.412Z,7.3
2023-01-25T06:56:32.238Z,7.9
2023-01-25T06:59:19.611Z,7.9
2023-01-25T07:02:07.287Z,7.4
2023-01-25T07:04:59.266Z,7.8
2023-01-25T07:07:46.604Z,7.3
2023-01-25T07:10:34.084Z,7.4
2023-01-25T07:13:21.406Z,6.6
2023-01-25T07:16:10.542Z,6.8
2023-01-25T07:19:00.477Z,7.7
2023-01-25T07:21:48.284Z,6.9
2023-01-25T07:24:35.563Z,7.3
2023-01-25T07:27:23.339Z,8.4
2023-01-25T07:30:11.332Z,7.7
2023-01-25T07:33:00.396Z,8.4
2023-01-25T07:35:47.747Z,8.7
2023-01-25T07:38:35.548Z,8.9
2023-01-25T07:41:23.058Z,6.7
2023-01-25T07:44:11.871Z,7.9
2023-01-25T07:46:59.276Z,6.7
2023-01-25T07:49:46.718Z,8
2023-01-25T07:52:34.102Z,9
2023-01-25T07:55:21.449Z,8
2023-01-25T07:58:09.223Z,8.2
2023-01-25T08:00:56.895Z,7.8
2023-01-25T08:03:51.718Z,8.3
2023-01-25T08:06:40.762Z,8.5
2023-01-25T08:09:31.184Z,8
2023-01-25T08:12:18.542Z,6.2
2023-01-25T08:15:07.568Z,7.4
2023-01-25T08:17:56.102Z,7.2
2023-01-25T08:20:44.758Z,7.9
2023-01-25T08:23:32.123Z,6.8
2023-01-25T08:26:20.203Z,6.2
2023-01-25T08:29:07.542Z,6.8
2023-01-25T08:31:56.008Z,6.4
2023-01-25T08:34:43.815Z,6
2023-01-25T08:37:31.123Z,6.9
2023-01-25T08:40:18.520Z,6.2
2023-01-25T08:43:05.730Z,5.8
2023-01-25T08:45:53.206Z,6.5
2023-01-25T08:48:42.391Z,6.3
2023-01-25T08:51:29.806Z,7.6
2023-01-25T08:54:18.639Z,6.6
2023-01-25T08:57:06.027Z,6.2
2023-01-25T08:59:53.383Z,7.6
2023-01-25T09:02:40.699Z,7.6
2023-01-25T09:05:28.231Z,7.7
2023-01-25T09:08:15.811Z,7.7
2023-01-25T09:11:03.127Z,7.8
2023-01-25T09:13:52.430Z,7.2
2023-01-25T09:16:39.848Z,7.6
2023-01-25T09:19:27.184Z,7
2023-01-25T09:22:14.549Z,7.6
2023-01-25T09:25:01.924Z,7.2
2023-01-25T09:27:49.721Z,7
2023-01-25T09:30:46.239Z,6.4
2023-01-25T09:33:40.730Z,7
2023-01-25T09:36:28.776Z,8
2023-01-25T09:39:16.189Z,7.1
2023-01-25T09:42:13.976Z,7.5
2023-01-25T09:45:17.266Z,7
2023-01-25T09:48:15.607Z,8.3
2023-01-25T09:51:14.971Z,7.7
2023-01-25T09:54:10.767Z,7.3
2023-01-25T09:56:58.928Z,7.3
2023-01-25T09:59:46.899Z,8.7
2023-01-25T10:02:36.648Z,7.8
2023-01-25T10:05:32.589Z,8.5
2023-01-25T10:08:30.030Z,7.2
2023-01-25T10:11:21.813Z,9.1
2023-01-25T10:14:11.972Z,8.5
2023-01-25T10:17:02.347Z,10.5
2023-01-25T10:19:56.726Z,8.7
2023-01-25T10:23:00.149Z,10.9
2023-01-25T10:26:12.857Z,9.2
2023-01-25T10:29:08.312Z,11.4
2023-01-25T10:32:01.608Z,10.8
2023-01-25T10:35:02.234Z,10.3
2023-01-25T10:38:01.103Z,10.3
2023-01-25T10:40:55.145Z,10.9
2023-01-25T10:43:48.964Z,10
2023-01-25T10:47:06.248Z,11.5
2023-01-25T10:50:02.233Z,10.4
2023-01-25T10:52:51.283Z,10.5
2023-01-25T10:55:43.556Z,11.2
2023-01-25T10:58:43.365Z,10.4
2023-01-25T11:01:32.817Z,13.1
2023-01-25T11:04:22.196Z,11.5
2023-01-25T11:07:17.247Z,12.2
2023-01-25T11:10:13.634Z,11.3
2023-01-25T11:13:13.902Z,12.3
2023-01-25T11:16:08.360Z,11.5
2023-01-25T11:19:08.495Z,11.7
2023-01-25T11:22:11.892Z,9.9
2023-01-25T11:25:08.642Z,10.4
2023-01-25T11:28:15.971Z,11.2
2023-01-25T11:31:05.932Z,10.3
2023-01-25T11:33:58.184Z,9.6
2023-01-25T11:36:45.612Z,10.7
2023-01-25T11:39:49.226Z,8.3
2023-01-25T11:42:46.072Z,9.6
2023-01-25T11:45:45.578Z,9.9
2023-01-25T11:48:49.222Z,10.2
2023-01-25T11:51:55.739Z,10
2023-01-25T11:54:56.176Z,10.6
2023-01-25T11:57:56.008Z,8.8
2023-01-25T12:00:56.926Z,8.7
2023-01-25T12:03:56.269Z,7.9
2023-01-25T12:07:23.533Z,9.4
2023-01-25T12:10:23.711Z,10.2
2023-01-25T12:13:24.846Z,10.5
2023-01-25T12:16:25.717Z,8.1
2023-01-25T12:19:29.483Z,9.1
2023-01-25T12:22:32.289Z,7.1
2023-01-25T12:25:30.763Z,9.8
2023-01-25T12:28:26.302Z,8.4
2023-01-25T12:31:21.549Z,9.4
2023-01-25T12:34:15.857Z,8.7
2023-01-25T12:37:12.174Z,9.5
2023-01-25T12:40:03.488Z,9
2023-01-25T12:42:58.341Z,13
2023-01-25T12:45:46.415Z,12.1
2023-01-25T12:48:36.458Z,11.1
2023-01-25T12:51:28.268Z,11.5
2023-01-25T12:54:25.314Z,11.9
2023-01-25T12:57:18.503Z,13.2
2023-01-25T13:00:12.426Z,13.6
2023-01-25T13:03:08.127Z,10.6
2023-01-25T13:06:08.532Z,10.8
2023-01-25T13:09:05.421Z,11
2023-01-25T13:12:01.552Z,11.3
2023-01-25T13:14:49.973Z,11.4
2023-01-25T13:17:37.735Z,12.2
2023-01-25T13:20:25.796Z,10.9
2023-01-25T13:23:48.724Z,10.9
2023-01-25T13:26:56.308Z,13
2023-01-25T13:29:47.039Z,13.5
2023-01-25T13:32:43.981Z,12.2
2023-01-25T13:35:51.497Z,11.6
2023-01-25T13:38:38.968Z,14.3
2023-01-25T13:41:26.463Z,15.3
2023-01-25T13:44:13.849Z,15.5
2023-01-25T13:47:12.881Z,15
2023-01-25T13:50:04.872Z,12.8
2023-01-25T13:53:05.750Z,14.4
2023-01-25T13:56:04.772Z,16.7
2023-01-25T13:59:11.332Z,17.1
2023-01-25T14:02:14.302Z,15.9
2023-01-25T14:05:08.417Z,12.5
2023-01-25T14:08:03.714Z,12.7
2023-01-25T14:10:51.202Z,13.5
2023-01-25T14:13:39.603Z,14.4
2023-01-25T14:16:41.171Z,14.1
2023-01-25T14:19:29.803Z,12
2023-01-25T14:22:17.995Z,13.8
2023-01-25T14:25:08.106Z,13
2023-01-25T14:27:58.481Z,13.6
2023-01-25T14:30:47.447Z,13.5
2023-01-25T14:33:37.476Z,13.8
2023-01-25T14:36:29.131Z,13.7
2023-01-25T14:39:18.951Z,13
2023-01-25T14:42:14.184Z,11.6
2023-01-25T14:45:02.462Z,14.7
2023-01-25T14:47:59.054Z,16.9
2023-01-25T14:50:46.945Z,15.3
2023-01-25T14:53:34.295Z,16.5
2023-01-25T14:56:26.390Z,13.4
2023-01-25T14:59:18.757Z,14.8
2023-01-25T15:02:13.242Z,13.8
2023-01-25T15:05:15.485Z,14.7
2023-01-25T15:08:06.066Z,13.9
2023-01-25T15:11:11.879Z,16.6
2023-01-25T15:14:29.864Z,15.9
2023-01-25T15:17:17.794Z,16.3
2023-01-25T15:20:23.895Z,15.7
2023-01-25T15:23:18.334Z,19.9
2023-01-25T15:26:10.033Z,18.6
2023-01-25T15:29:00.306Z,18.5
2023-01-25T15:31:53.167Z,16.2
2023-01-25T15:34:41.641Z,16.5
2023-01-25T15:37:28.961Z,18.5
2023-01-25T15:40:16.370Z,17
2023-01-25T15:43:04.043Z,17.6
2023-01-25T15:45:54.522Z,19.3
2023-01-25T15:48:43.025Z,16.7
2023-01-25T15:51:35.340Z,18.2
2023-01-25T15:54:22.864Z,19.5
2023-01-25T15:57:11.283Z,17.9
2023-01-25T16:00:08.533Z,15.6
2023-01-25T16:03:02.428Z,18
2023-01-25T16:05:51.760Z,18.1
2023-01-25T16:08:43.594Z,17.2
2023-01-25T16:11:31.024Z,17.9
2023-01-25T16:14:18.435Z,18
2023-01-25T16:17:08.199Z,16.5
2023-01-25T16:20:02.809Z,19.4
2023-01-25T16:22:53.170Z,18.5
2023-01-25T16:25:40.720Z,19.5
2023-01-25T16:28:29.360Z,19.2
2023-01-25T16:31:30.913Z,17.4
2023-01-25T16:34:19.136Z,18.3
2023-01-25T16:37:07.322Z,19.3
2023-01-25T16:39:59.639Z,19.4
2023-01-25T16:42:47.104Z,20.4
2023-01-25T16:45:34.926Z,18.9
2023-01-25T16:48:24.574Z,19.8
2023-01-25T16:51:12.213Z,21
2023-01-25T16:54:02.750Z,20.4
2023-01-25T16:56:50.270Z,21.9
2023-01-25T16:59:39.208Z,21.4
2023-01-25T17:02:26.579Z,18.6
2023-01-25T17:05:14.210Z,18.9
2023-01-25T17:08:01.657Z,18
2023-01-25T17:10:49.051Z,17.7
2023-01-25T17:13:38.627Z,17.7
2023-01-25T17:16:26.139Z,16.8
2023-01-25T17:19:15.034Z,17.1
2023-01-25T17:22:02.968Z,18.7
2023-01-25T17:24:50.387Z,19.3
2023-01-25T17:27:40.171Z,18.8
2023-01-25T17:30:27.540Z,16.1
2023-01-25T17:33:15.152Z,18.4
2023-01-25T17:36:02.972Z,19.9
2023-01-25T17:38:51.011Z,21
2023-01-25T17:41:38.553Z,18.7
2023-01-25T17:44:25.907Z,20.4
2023-01-25T17:47:13.539Z,18.9
2023-01-25T17:50:00.835Z,18.5
2023-01-25T17:52:49.232Z,18.6
2023-01-25T17:55:36.646Z,19.1
2023-01-25T17:58:24.301Z,18.7
2023-01-25T18:01:14.264Z,16.6
2023-01-25T18:04:04.386Z,17.5
2023-01-25T18:06:52.974Z,18.6
2023-01-25T18:09:40.491Z,20.5
2023-01-25T18:12:27.875Z,18.2
2023-01-25T18:15:15.186Z,17.6
2023-01-25T18:18:03.216Z,17.7
2023-01-25T18:20:51.660Z,20.4
2023-01-25T18:23:48.416Z,19.7
2023-01-25T18:26:37.521Z,18.6
2023-01-25T18:29:26.876Z,17.7
2023-01-25T18:32:25.579Z,18.8
2023-01-25T18:35:13.406Z,18.9
2023-01-25T18:38:00.947Z,18.8
2023-01-25T18:40:48.433Z,18.6
2023-01-25T18:43:35.919Z,18
2023-01-25T18:46:23.894Z,19.2
2023-01-25T18:49:12.787Z,20.2
2023-01-25T18:52:10.841Z,19.7
2023-01-25T18:54:58.947Z,18.9
2023-01-25T18:57:46.931Z,22.1
2023-01-25T19:00:34.241Z,20.3
2023-01-25T19:03:24.039Z,21.6
2023-01-25T19:06:13.618Z,19.7
2023-01-25T19:09:02.435Z,21.1
2023-01-25T19:11:49.870Z,18.7
2023-01-25T19:14:37.520Z,20.8
2023-01-25T19:17:25.248Z,21.8
2023-01-25T19:20:13.007Z,23.9
2023-01-25T19:23:00.815Z,22.7
2023-01-25T19:25:48.273Z,21.1
2023-01-25T19:28:38.746Z,21.9
2023-01-25T19:31:26.992Z,22.7
2023-01-25T19:34:16.869Z,23.2
2023-01-25T19:37:04.341Z,23.2
2023-01-25T19:39:51.737Z,23.3
2023-01-25T19:42:39.096Z,23.8
2023-01-25T19:45:26.551Z,24.2
2023-01-25T19:48:14.104Z,23.6
2023-01-25T19:51:01.651Z,24.6
2023-01-25T19:53:54.493Z,22.2
2023-01-25T19:56:44.521Z,24.7
2023-01-25T19:59:33.808Z,26.4
2023-01-25T20:02:21.163Z,25.6
2023-01-25T20:05:09.004Z,25.1
2023-01-25T20:07:57.033Z,25.1
2023-01-25T20:10:44.420Z,21.8
2023-01-25T20:13:31.891Z,23.5
2023-01-25T20:16:19.421Z,22.2
2023-01-25T20:19:07.101Z,21.3
2023-01-25T20:21:59.334Z,21.9
2023-01-25T20:24:47.842Z,22.2
2023-01-25T20:27:35.246Z,22.8
2023-01-25T20:30:22.704Z,21.8
2023-01-25T20:33:10.949Z,23.5
2023-01-25T20:35:58.439Z,22.2
2023-01-25T20:38:46.795Z,21.9
2023-01-25T20:41:34.419Z,22.6
2023-01-25T20:44:21.912Z,21.3
2023-01-25T20:47:09.379Z,23
2023-01-25T20:49:56.762Z,22
2023-01-25T20:52:44.406Z,22.1
2023-01-25T20:55:31.868Z,22.9
2023-01-25T20:58:19.313Z,22.6
2023-01-25T21:01:06.826Z,23.4
2023-01-25T21:04:00.097Z,22.3
2023-01-25T21:06:48.922Z,20.3
2023-01-25T21:09:36.324Z,22.3
2023-01-25T21:12:23.980Z,21.4
2023-01-25T21:15:12.589Z,22.4
2023-01-25T21:18:02.370Z,22
2023-01-25T21:20:50.068Z,23.3
2023-01-25T21:23:37.390Z,24.6
2023-01-25T21:26:29.391Z,26.5
2023-01-25T21:29:19.188Z,25.3
2023-01-25T21:32:06.552Z,25.7
2023-01-25T21:34:53.919Z,25.3
2023-01-25T21:37:41.389Z,23.8
2023-01-25T21:40:30.786Z,25.1
2023-01-25T21:43:18.217Z,25.3
2023-01-25T21:46:05.603Z,24.5
2023-01-25T21:49:09.909Z,26.6
2023-01-25T21:52:30.439Z,25.6
2023-01-25T21:55:19.115Z,28.2
2023-01-25T21:58:06.422Z,25.4
2023-01-25T22:00:53.999Z,27.9
2023-01-25T22:03:46.480Z,26.4
2023-01-25T22:06:34.333Z,26.3
2023-01-25T22:09:22.070Z,27.2
2023-01-25T22:12:09.662Z,25.3
2023-01-25T22:14:57.448Z,27.5
2023-01-25T22:17:46.068Z,26.3
2023-01-25T22:20:33.467Z,25.7
2023-01-25T22:23:20.760Z,27.2
2023-01-25T22:26:08.058Z,26.9
2023-01-25T22:28:57.720Z,27.9
2023-01-25T22:31:45.777Z,25.3
2023-01-25T22:34:33.009Z,29.3
2023-01-25T22:37:20.433Z,28.7
2023-01-25T22:40:09.031Z,27.9
2023-01-25T22:42:57.746Z,28.9
2023-01-25T22:45:45.012Z,27.1
2023-01-25T22:48:36.472Z,31.5
2023-01-25T22:51:25.442Z,29.2
2023-01-25T22:54:14.987Z,26.3
2023-01-25T22:57:03.206Z,24.7
2023-01-25T22:59:50.531Z,27.9
2023-01-25T23:02:38.167Z,26.9
2023-01-25T23:05:26.001Z,30.9
2023-01-25T23:08:13.336Z,27.6
2023-01-25T23:11:01.073Z,28
2023-01-25T23:13:50.235Z,28.9
2023-01-25T23:17:10.067Z,31.8
2023-01-25T23:20:29.087Z,31.4
2023-01-25T23:23:16.506Z,32.5
2023-01-25T23:26:03.935Z,31.7
2023-01-25T23:28:52.404Z,33.3
2023-01-25T23:31:42.329Z,33.2
2023-01-25T23:34:29.775Z,31.9
2023-01-25T23:37:19.443Z,31.2
2023-01-25T23:40:07.232Z,31.3
2023-01-25T23:42:56.667Z,33.1
2023-01-25T23:45:44.014Z,34
2023-01-25T23:48:31.335Z,32.7
2023-01-25T23:51:19.400Z,29.9
2023-01-25T23:54:06.805Z,31.4
2023-01-25T23:56:54.124Z,31.1
2023-01-25T23:59:41.750Z,31.9
